Elk Point, SD (57025)

10:29 PM CST on December 28, 2014 (GMT -0600)
Mr Rogers | Change Station
CLOSE
Current Station
Personal Weather Station
Location: Elk Point, SD
Elevation: 1112 ft
Nearby Weather Stations

Elev 1112 ft 42.71 °N, 96.65 °W | Updated 15 days ago

Overcast
Overcast
19 °F
Feels Like 10 °F
N
9
Wind Variable Wind from ENE
Gusts 10 mph

Today
High -- | Low -- °F
--% Chance of Precip.
Yesterday
High -- | Low -- °F
Precip. -- in
7:56 AM 5:00 PM
First Quarter, 55% visible
Pressure 30.25 in
Visibility 2.5 miles
Clouds Overcast 300 ft
Windchill 10 °F
Dew Point 16 °F
Humidity 85%
Rainfall 0.00 in
Snow Depth Not available.
UV 0 out of 12
Pollen .10 out of 12
Air Quality Not available.
Flu Activity Not available.
METAR KLRJ 290355Z AUTO 02009KT 2 1/2SM -SN OVC003 M06/M07 A3025 RMK AO2

More Conditions Fewer Conditions

Pressure 30.25 in
Visibility 2.5 miles
Clouds Overcast 300 ft
Windchill 10 °F
Dew Point 16 °F
Humidity 85%
Rainfall 0.00 in
Snow Depth Not available.
UV 0 out of 12
Pollen .10 out of 12
Air Quality Not available.
Flu Activity Not available.
METAR KLRJ 290355Z AUTO 02009KT 2 1/2SM -SN OVC003 M06/M07 A3025 RMK AO2

More Conditions Fewer Conditions

10-Day Weather Forecast

Almanac

Astronomy

Dec. 28, 2014 Rise Set
Actual Time
Civil Twilight
Nautical Twilight
Astronomical Twilight
Moon
Length of Visible Light
Length of Day
Tomorrow will be .
, % of the Moon is Illuminated

Today's Extremes

State Highs State Lows

Community

WunderPhotos

Upload Photos

1,781,534 photos uploaded!

WunderBlogs® & News

Nearby

Air Quality

  Air Quality AQ Index Pollutant
Not available.

Snow Depth

Station Depth Elevation

Earthquake Activity

City Distance Mag. Time & Date
Minimum magnitude displayed is 2.5.

Coastal Water Temperatures

Place Temperature

Nearby Weather Stations